createdAt,value
2023-04-13T00:01:46.006Z,42.64
2023-04-13T00:04:14.524Z,42.55
2023-04-13T00:06:42.846Z,42.41
2023-04-13T00:09:11.201Z,43.27
2023-04-13T00:11:40.210Z,43.04
2023-04-13T00:14:08.500Z,42.51
2023-04-13T00:16:38.175Z,42.63
2023-04-13T00:19:06.786Z,42.35
2023-04-13T00:21:35.066Z,42.76
2023-04-13T00:24:08.459Z,42.29
2023-04-13T00:26:38.762Z,42.46
2023-04-13T00:29:07.578Z,42.42
2023-04-13T00:31:35.712Z,42.40
2023-04-13T00:34:04.574Z,42.44
2023-04-13T00:36:33.173Z,42.26
2023-04-13T00:39:01.118Z,42.28
2023-04-13T00:41:32.944Z,42.35
2023-04-13T00:44:00.995Z,42.17
2023-04-13T00:46:29.730Z,42.32
2023-04-13T00:49:03.117Z,42.23
2023-04-13T00:51:33.142Z,42.16
2023-04-13T00:54:01.061Z,42.18
2023-04-13T00:56:31.690Z,42.13
2023-04-13T00:58:59.687Z,42.17
2023-04-13T01:01:30.364Z,42.45
2023-04-13T01:03:59.517Z,42.46
2023-04-13T01:06:31.978Z,42.20
2023-04-13T01:09:08.707Z,42.33
2023-04-13T01:11:39.702Z,42.91
2023-04-13T01:14:13.212Z,43.10
2023-04-13T01:16:50.399Z,43.07
2023-04-13T01:19:30.983Z,43.47
2023-04-13T01:21:59.749Z,43.69
2023-04-13T01:24:31.101Z,43.18
2023-04-13T01:27:20.682Z,42.85
2023-04-13T01:29:49.489Z,42.95
2023-04-13T01:32:17.885Z,42.70
2023-04-13T01:34:46.525Z,42.57
2023-04-13T01:37:14.779Z,42.70
2023-04-13T01:39:43.255Z,42.55
2023-04-13T01:42:24.216Z,42.17
2023-04-13T01:44:54.475Z,42.00
2023-04-13T01:47:22.825Z,41.85
2023-04-13T01:50:09.397Z,41.96
2023-04-13T01:52:49.395Z,42.29
2023-04-13T01:55:18.222Z,42.47
2023-04-13T01:57:54.934Z,42.35
2023-04-13T02:00:31.843Z,42.62
2023-04-13T02:03:00.684Z,42.93
2023-04-13T02:05:29.544Z,43.08
2023-04-13T02:07:57.935Z,43.37
2023-04-13T02:10:26.680Z,43.54
2023-04-13T02:12:55.525Z,43.48
2023-04-13T02:15:24.187Z,43.38
2023-04-13T02:17:53.225Z,43.43
2023-04-13T02:20:21.763Z,43.37
2023-04-13T02:22:55.149Z,43.06
2023-04-13T02:25:28.186Z,42.74
2023-04-13T02:27:57.225Z,42.54
2023-04-13T02:30:26.048Z,42.22
2023-04-13T02:33:00.549Z,42.22
2023-04-13T02:35:29.002Z,41.74
2023-04-13T02:37:58.216Z,41.55
2023-04-13T02:40:28.222Z,41.45
2023-04-13T02:43:00.017Z,41.43
2023-04-13T02:45:29.505Z,41.63
2023-04-13T02:48:06.334Z,42.22
2023-04-13T02:50:35.859Z,42.36
2023-04-13T02:53:08.955Z,42.09
2023-04-13T02:55:43.358Z,42.27
2023-04-13T02:58:13.589Z,42.42
2023-04-13T03:00:42.542Z,42.48
2023-04-13T03:03:20.465Z,42.18
2023-04-13T03:05:51.470Z,42.10
2023-04-13T03:08:23.852Z,41.96
2023-04-13T03:11:00.878Z,41.85
2023-04-13T03:13:30.807Z,41.89
2023-04-13T03:16:00.537Z,41.83
2023-04-13T03:18:29.204Z,42.04
2023-04-13T03:20:57.143Z,41.39
2023-04-13T03:23:28.170Z,41.10
2023-04-13T03:25:58.655Z,41.09
2023-04-13T03:28:27.294Z,41.55
2023-04-13T03:30:55.628Z,41.65
2023-04-13T03:33:24.990Z,41.75
2023-04-13T03:35:53.090Z,41.68
2023-04-13T03:38:28.007Z,41.88
2023-04-13T03:40:56.295Z,41.89
2023-04-13T03:43:24.989Z,42.44
2023-04-13T03:46:01.810Z,42.70
2023-04-13T03:48:30.140Z,42.25
2023-04-13T03:50:58.614Z,42.23
2023-04-13T03:53:31.279Z,42.08
2023-04-13T03:55:59.817Z,42.08
2023-04-13T03:58:28.947Z,42.55
2023-04-13T04:00:57.849Z,42.70
2023-04-13T04:03:36.021Z,42.92
2023-04-13T04:06:08.463Z,42.75
2023-04-13T04:08:39.976Z,42.54
2023-04-13T04:11:13.728Z,42.59
2023-04-13T04:13:41.892Z,42.55
2023-04-13T04:16:19.738Z,42.32
2023-04-13T04:18:53.295Z,42.26
2023-04-13T04:21:21.862Z,42.07
2023-04-13T04:23:53.007Z,42.09
2023-04-13T04:26:25.803Z,41.84
2023-04-13T04:29:02.805Z,41.57
2023-04-13T04:31:36.672Z,41.68
2023-04-13T04:34:06.791Z,41.83
2023-04-13T04:36:36.436Z,41.44
2023-04-13T04:39:06.339Z,41.84
2023-04-13T04:41:39.831Z,41.79
2023-04-13T04:44:09.115Z,41.86
2023-04-13T04:46:42.097Z,41.87
2023-04-13T04:49:13.243Z,41.98
2023-04-13T04:51:41.894Z,42.05
2023-04-13T04:54:10.615Z,41.95
2023-04-13T04:56:38.932Z,41.87
2023-04-13T04:59:07.156Z,42.08
2023-04-13T05:01:52.444Z,41.76
2023-04-13T05:04:20.710Z,41.73
2023-04-13T05:06:49.290Z,41.23
2023-04-13T05:09:22.862Z,41.31
2023-04-13T05:11:56.416Z,40.85
2023-04-13T05:14:24.380Z,40.24
2023-04-13T05:16:54.632Z,39.72
2023-04-13T05:19:29.744Z,39.28
2023-04-13T05:22:13.079Z,39.99
2023-04-13T05:24:46.478Z,39.52
2023-04-13T05:27:16.076Z,39.37
2023-04-13T05:29:47.894Z,39.30
2023-04-13T05:32:20.987Z,39.16
2023-04-13T05:34:51.096Z,38.97
2023-04-13T05:37:23.748Z,38.66
2023-04-13T05:39:52.153Z,38.43
2023-04-13T05:42:24.130Z,38.39
2023-04-13T05:44:53.074Z,38.06
2023-04-13T05:47:22.505Z,38.07
2023-04-13T05:49:52.357Z,38.07
2023-04-13T05:52:22.096Z,37.62
2023-04-13T05:54:50.417Z,37.33
2023-04-13T05:57:23.086Z,37.47
2023-04-13T05:59:53.453Z,37.42
2023-04-13T06:02:26.564Z,37.70
2023-04-13T06:04:56.521Z,37.88
2023-04-13T06:07:26.071Z,37.48
2023-04-13T06:09:54.417Z,37.62
2023-04-13T06:12:27.994Z,37.59
2023-04-13T06:14:56.010Z,37.70
2023-04-13T06:17:24.669Z,37.61
2023-04-13T06:19:54.531Z,37.29
2023-04-13T06:22:22.829Z,37.24
2023-04-13T06:24:51.782Z,37.26
2023-04-13T06:27:22.686Z,37.17
2023-04-13T06:29:52.444Z,37.01
2023-04-13T06:32:21.097Z,36.82
2023-04-13T06:34:49.321Z,36.87
2023-04-13T06:37:19.315Z,36.56
2023-04-13T06:39:49.890Z,36.07
2023-04-13T06:42:21.268Z,36.07
2023-04-13T06:45:23.525Z,36.07
2023-04-13T06:47:52.578Z,35.83
2023-04-13T06:50:21.012Z,35.44
2023-04-13T06:52:49.201Z,34.88
2023-04-13T06:55:18.073Z,34.96
2023-04-13T06:57:46.942Z,34.61
2023-04-13T07:00:28.917Z,34.19
2023-04-13T07:02:58.812Z,34.06
2023-04-13T07:05:27.087Z,34.18
2023-04-13T07:07:58.433Z,33.98
2023-04-13T07:10:27.467Z,34.04
2023-04-13T07:12:56.369Z,33.85
2023-04-13T07:15:25.696Z,33.39
2023-04-13T07:17:56.018Z,32.21
2023-04-13T07:20:24.182Z,32.84
2023-04-13T07:22:52.972Z,33.24
2023-04-13T07:25:21.850Z,33.17
2023-04-13T07:27:51.025Z,33.18
2023-04-13T07:30:19.483Z,32.78
2023-04-13T07:32:48.972Z,32.18
2023-04-13T07:35:17.025Z,31.52
2023-04-13T07:37:46.743Z,31.85
2023-04-13T07:40:16.059Z,31.86
2023-04-13T07:42:47.288Z,31.83
2023-04-13T07:45:15.955Z,31.72
2023-04-13T07:47:47.266Z,31.47
2023-04-13T07:50:16.665Z,30.72
2023-04-13T07:52:45.103Z,30.24
2023-04-13T07:55:13.532Z,30.26
2023-04-13T07:57:50.051Z,30.54
2023-04-13T08:00:20.685Z,30.17
2023-04-13T08:02:49.260Z,29.93
2023-04-13T08:05:24.081Z,30.00
2023-04-13T08:07:53.801Z,30.29
2023-04-13T08:10:22.422Z,30.45
2023-04-13T08:12:50.375Z,30.60
2023-04-13T08:15:19.804Z,30.72
2023-04-13T08:17:48.907Z,31.34
2023-04-13T08:20:17.075Z,31.21
2023-04-13T08:22:47.803Z,30.92
2023-04-13T08:25:17.569Z,30.55
2023-04-13T08:27:45.838Z,30.81
2023-04-13T08:30:14.858Z,30.83
2023-04-13T08:33:01.778Z,31.03
2023-04-13T08:35:30.304Z,31.24
2023-04-13T08:38:02.698Z,31.26
2023-04-13T08:40:37.529Z,31.09
2023-04-13T08:43:07.359Z,31.19
2023-04-13T08:45:41.682Z,31.25
2023-04-13T08:48:12.241Z,31.30
2023-04-13T08:50:40.943Z,31.32
2023-04-13T08:53:10.390Z,31.12
2023-04-13T08:55:43.568Z,31.16
2023-04-13T08:58:12.966Z,31.20
2023-04-13T09:00:44.403Z,31.28
2023-04-13T09:03:14.613Z,31.14
2023-04-13T09:05:46.469Z,31.00
2023-04-13T09:08:17.069Z,31.39
2023-04-13T09:10:48.316Z,31.18
2023-04-13T09:13:16.770Z,31.40
2023-04-13T09:15:47.472Z,31.20
2023-04-13T09:18:51.583Z,30.93
2023-04-13T09:24:02.702Z,35.44
2023-04-13T09:26:48.196Z,32.82
2023-04-13T09:29:21.900Z,31.87
2023-04-13T09:31:50.744Z,31.61
2023-04-13T09:34:28.752Z,31.32
2023-04-13T09:37:01.024Z,31.01
2023-04-13T09:39:30.227Z,31.09
2023-04-13T09:41:58.630Z,30.84
2023-04-13T09:44:36.191Z,30.91
2023-04-13T09:47:06.984Z,30.73
2023-04-13T09:49:42.311Z,30.18
2023-04-13T09:52:23.380Z,29.86
2023-04-13T09:54:57.221Z,29.98
2023-04-13T09:57:30.791Z,29.81
2023-04-13T10:00:07.172Z,30.20
2023-04-13T10:02:43.007Z,30.18
2023-04-13T10:05:12.555Z,30.58
2023-04-13T10:07:45.535Z,31.34
2023-04-13T10:10:15.436Z,31.66
2023-04-13T10:12:49.059Z,31.96
2023-04-13T10:15:22.766Z,32.14
2023-04-13T10:18:06.975Z,32.52
2023-04-13T10:20:36.604Z,32.44
2023-04-13T10:23:04.651Z,32.32
2023-04-13T10:25:34.589Z,32.33
2023-04-13T10:28:04.794Z,32.43
2023-04-13T10:30:33.289Z,32.49
2023-04-13T10:33:09.440Z,32.17
2023-04-13T10:35:38.198Z,32.50
2023-04-13T10:38:09.230Z,32.82
2023-04-13T10:40:47.884Z,32.99
2023-04-13T10:43:29.074Z,33.12
2023-04-13T10:46:10.846Z,33.03
2023-04-13T10:48:42.264Z,33.23
2023-04-13T10:51:13.170Z,33.45
2023-04-13T10:53:42.307Z,33.63
2023-04-13T10:56:17.147Z,33.16
2023-04-13T10:58:51.994Z,33.06
2023-04-13T11:01:20.843Z,33.23
2023-04-13T11:04:03.168Z,33.34
2023-04-13T11:06:40.069Z,33.50
2023-04-13T11:09:13.099Z,33.61
2023-04-13T11:11:42.668Z,33.51
2023-04-13T11:14:21.415Z,33.55
2023-04-13T11:16:49.558Z,33.57
2023-04-13T11:19:19.055Z,33.30
2023-04-13T11:21:54.090Z,32.78
2023-04-13T11:24:29.549Z,32.65
2023-04-13T11:26:57.820Z,32.77
2023-04-13T11:29:27.412Z,32.83
2023-04-13T11:31:59.238Z,32.79
2023-04-13T11:34:30.664Z,32.83
2023-04-13T11:37:00.647Z,32.90
2023-04-13T11:39:29.372Z,32.99
2023-04-13T11:41:57.444Z,32.61
2023-04-13T11:44:26.215Z,32.78
2023-04-13T11:46:54.592Z,33.09
2023-04-13T11:49:23.087Z,33.09
2023-04-13T11:51:52.173Z,33.87
2023-04-13T11:54:20.268Z,34.02
2023-04-13T11:56:49.148Z,34.20
2023-04-13T11:59:24.851Z,34.14
2023-04-13T12:01:58.284Z,34.21
2023-04-13T12:04:39.086Z,34.06
2023-04-13T12:07:12.656Z,33.69
2023-04-13T12:15:15.471Z,33.97
2023-04-13T12:17:59.942Z,34.01
2023-04-13T12:20:43.971Z,33.98
2023-04-13T12:23:22.305Z,33.69
2023-04-13T12:26:31.218Z,33.66
2023-04-13T12:28:57.523Z,33.37
2023-04-13T12:31:36.805Z,32.65
2023-04-13T12:34:07.834Z,32.68
2023-04-13T12:36:36.964Z,32.47
2023-04-13T12:39:06.872Z,32.26
2023-04-13T12:41:35.310Z,32.40
2023-04-13T12:44:03.387Z,32.12
2023-04-13T12:46:32.510Z,31.79
2023-04-13T12:49:00.721Z,31.73
2023-04-13T12:51:29.265Z,31.75
2023-04-13T12:53:57.228Z,31.32
2023-04-13T12:56:25.233Z,31.32
2023-04-13T12:58:56.300Z,31.44
2023-04-13T13:01:24.640Z,31.52
2023-04-13T13:03:54.002Z,31.35
2023-04-13T13:06:22.525Z,31.33
2023-04-13T13:08:51.254Z,31.06
2023-04-13T13:11:19.160Z,30.69
2023-04-13T13:13:48.790Z,30.87
2023-04-13T13:16:17.485Z,31.05
2023-04-13T13:19:00.958Z,31.66
2023-04-13T13:21:29.603Z,31.84
2023-04-13T13:23:57.925Z,31.58
2023-04-13T13:26:30.577Z,31.77
2023-04-13T13:29:09.630Z,31.90
2023-04-13T13:31:40.302Z,31.65
2023-04-13T13:34:11.792Z,32.24
2023-04-13T13:36:39.717Z,31.75
2023-04-13T13:39:10.188Z,31.53
2023-04-13T13:41:38.666Z,31.60
2023-04-13T13:44:08.605Z,31.81
2023-04-13T13:46:37.303Z,31.86
2023-04-13T13:49:07.990Z,32.03
2023-04-13T13:51:57.352Z,32.36
2023-04-13T13:54:27.055Z,32.19
2023-04-13T13:56:54.999Z,31.83
2023-04-13T13:59:22.946Z,31.73
2023-04-13T14:01:51.566Z,31.89
2023-04-13T14:04:20.233Z,31.88
2023-04-13T14:06:53.305Z,32.25
2023-04-13T14:09:21.758Z,32.51
2023-04-13T14:11:50.866Z,32.81
2023-04-13T14:14:22.253Z,32.91
2023-04-13T14:16:53.889Z,32.74
2023-04-13T14:19:22.273Z,32.86
2023-04-13T14:21:53.417Z,33.14
2023-04-13T14:24:26.492Z,33.11
2023-04-13T14:26:56.225Z,33.39
2023-04-13T14:29:24.244Z,33.33
2023-04-13T14:31:52.952Z,33.31
2023-04-13T14:34:20.955Z,33.23
2023-04-13T14:36:51.611Z,33.34
2023-04-13T14:39:25.976Z,33.31
2023-04-13T14:41:55.882Z,33.20
2023-04-13T14:44:24.763Z,33.37
2023-04-13T14:46:53.625Z,33.53
2023-04-13T14:49:21.877Z,33.72
2023-04-13T14:51:50.185Z,33.54
2023-04-13T14:54:22.981Z,33.37
2023-04-13T14:56:51.475Z,33.58
2023-04-13T14:59:19.934Z,33.70
2023-04-13T15:01:50.965Z,33.90
2023-04-13T15:04:19.993Z,33.93
2023-04-13T15:06:49.451Z,34.29
2023-04-13T15:09:18.248Z,34.52
2023-04-13T15:11:46.594Z,34.29
2023-04-13T15:14:18.296Z,34.51
2023-04-13T15:16:46.501Z,34.73
2023-04-13T15:19:14.522Z,34.74
2023-04-13T15:21:46.420Z,34.81
2023-04-13T15:24:15.797Z,34.94
2023-04-13T15:26:43.786Z,34.93
2023-04-13T15:29:12.906Z,35.03
2023-04-13T15:31:41.308Z,35.28
2023-04-13T15:34:09.261Z,35.41
2023-04-13T15:36:37.827Z,35.35
2023-04-13T15:39:06.553Z,35.45
2023-04-13T15:41:34.511Z,35.72
2023-04-13T15:44:03.435Z,35.67
2023-04-13T15:46:32.508Z,35.26
2023-04-13T15:49:01.455Z,35.20
2023-04-13T15:51:32.685Z,35.04
2023-04-13T15:54:00.621Z,35.51
2023-04-13T15:56:29.158Z,35.90
2023-04-13T15:58:57.422Z,36.22
2023-04-13T16:01:26.741Z,36.26
2023-04-13T16:03:56.384Z,36.25
2023-04-13T16:06:24.553Z,36.19
2023-04-13T16:09:02.119Z,36.32
2023-04-13T16:11:32.331Z,36.47
2023-04-13T16:14:07.488Z,36.29
2023-04-13T16:16:47.215Z,36.93
2023-04-13T16:19:18.404Z,36.95
2023-04-13T16:21:47.584Z,36.98
2023-04-13T16:24:17.255Z,36.84
2023-04-13T16:26:46.102Z,36.93
2023-04-13T16:29:14.028Z,37.34
2023-04-13T16:31:44.979Z,37.31
2023-04-13T16:34:25.508Z,37.53
2023-04-13T16:36:54.797Z,37.27
2023-04-13T16:39:24.054Z,37.71
2023-04-13T16:41:52.169Z,37.84
2023-04-13T16:44:20.196Z,37.80
2023-04-13T16:46:50.088Z,37.97
2023-04-13T16:49:18.508Z,38.11
2023-04-13T16:51:48.414Z,38.02
2023-04-13T16:54:17.919Z,37.91
2023-04-13T16:56:48.472Z,37.94
2023-04-13T16:59:16.744Z,37.92
2023-04-13T17:01:47.659Z,37.91
2023-04-13T17:04:18.905Z,37.76
2023-04-13T17:06:47.485Z,37.85
2023-04-13T17:09:15.621Z,37.74
2023-04-13T17:11:45.835Z,38.39
2023-04-13T17:14:14.038Z,38.73
2023-04-13T17:16:46.139Z,38.86
2023-04-13T17:19:15.632Z,38.90
2023-04-13T17:21:43.962Z,38.87
2023-04-13T17:24:13.417Z,39.19
2023-04-13T17:26:42.787Z,39.38
2023-04-13T17:29:10.913Z,39.24
2023-04-13T17:31:38.945Z,38.77
2023-04-13T17:34:07.304Z,38.74
2023-04-13T17:36:35.337Z,38.37
2023-04-13T17:39:05.773Z,38.55
2023-04-13T17:41:35.841Z,39.03
2023-04-13T17:44:03.962Z,38.94
2023-04-13T17:46:31.970Z,39.29
2023-04-13T17:49:03.151Z,39.18
2023-04-13T17:51:32.503Z,39.53
2023-04-13T17:54:01.089Z,39.22
2023-04-13T17:56:31.759Z,38.85
2023-04-13T17:59:00.788Z,39.00
2023-04-13T18:01:29.510Z,39.19
2023-04-13T18:03:59.588Z,39.37
2023-04-13T18:06:28.043Z,39.54
2023-04-13T18:08:56.321Z,39.05
2023-04-13T18:11:24.736Z,39.08
2023-04-13T18:13:54.027Z,39.24
2023-04-13T18:16:22.552Z,39.12
2023-04-13T18:18:51.442Z,39.37
2023-04-13T18:21:19.732Z,39.40
2023-04-13T18:23:48.130Z,39.29
2023-04-13T18:26:16.567Z,39.38
2023-04-13T18:28:44.886Z,39.10
2023-04-13T18:31:13.670Z,38.68
2023-04-13T18:33:42.569Z,38.96
2023-04-13T18:36:14.444Z,38.66
2023-04-13T18:38:44.955Z,38.52
2023-04-13T18:41:13.572Z,38.55
2023-04-13T18:43:41.524Z,38.78
2023-04-13T18:46:09.510Z,38.48
2023-04-13T18:48:38.096Z,38.35
2023-04-13T18:51:09.920Z,38.14
2023-04-13T18:53:39.773Z,37.76
2023-04-13T18:56:07.851Z,37.53
2023-04-13T18:58:37.495Z,37.39
2023-04-13T19:01:17.600Z,37.65
2023-04-13T19:03:46.180Z,38.36
2023-04-13T19:06:22.381Z,38.54
2023-04-13T19:08:51.076Z,38.29
2023-04-13T19:11:20.088Z,38.59
2023-04-13T19:13:48.198Z,38.23
2023-04-13T19:16:23.744Z,38.29
2023-04-13T19:18:53.353Z,38.22
2023-04-13T19:21:24.067Z,38.58
2023-04-13T19:23:54.316Z,38.64
2023-04-13T19:26:25.145Z,38.72
2023-04-13T19:28:55.627Z,38.85
2023-04-13T19:31:25.085Z,38.34
2023-04-13T19:33:53.393Z,38.39
2023-04-13T19:36:21.404Z,38.30
2023-04-13T19:38:51.959Z,38.42
2023-04-13T19:41:19.895Z,38.43
2023-04-13T19:43:47.866Z,38.40
2023-04-13T19:46:16.212Z,38.50
2023-04-13T19:48:44.590Z,38.48
2023-04-13T19:51:12.644Z,38.34
2023-04-13T19:53:42.010Z,38.04
2023-04-13T19:56:10.534Z,38.21
2023-04-13T19:58:38.626Z,38.30
2023-04-13T20:01:10.370Z,38.21
2023-04-13T20:03:40.833Z,38.31
2023-04-13T20:06:09.363Z,38.48
2023-04-13T20:08:37.412Z,38.61
2023-04-13T20:11:08.214Z,38.37
2023-04-13T20:13:38.674Z,38.66
2023-04-13T20:16:07.224Z,38.81
2023-04-13T20:18:35.315Z,38.62
2023-04-13T20:21:03.782Z,38.85
2023-04-13T20:23:31.818Z,38.81
2023-04-13T20:26:04.642Z,38.70
2023-04-13T20:28:33.491Z,38.57
2023-04-13T20:31:01.493Z,38.36
2023-04-13T20:33:31.146Z,38.58
2023-04-13T20:35:59.132Z,38.92
2023-04-13T20:38:29.989Z,38.85
2023-04-13T20:40:59.381Z,38.29
2023-04-13T20:43:27.956Z,38.05
2023-04-13T20:45:59.651Z,37.80
2023-04-13T20:51:01.810Z,37.89
2023-04-13T20:53:30.146Z,38.02
2023-04-13T20:55:58.463Z,38.12
2023-04-13T20:58:28.658Z,38.06
2023-04-13T21:00:57.169Z,38.54
2023-04-13T21:03:30.838Z,38.50
2023-04-13T21:05:59.751Z,38.50
2023-04-13T21:08:27.787Z,38.39
2023-04-13T21:10:55.903Z,38.32
2023-04-13T21:13:24.866Z,38.54
2023-04-13T21:15:52.792Z,38.48
2023-04-13T21:18:22.152Z,38.37
2023-04-13T21:20:51.970Z,38.37
2023-04-13T21:23:20.629Z,37.94
2023-04-13T21:25:50.918Z,37.61
2023-04-13T21:28:21.214Z,37.27
2023-04-13T21:30:49.263Z,37.42
2023-04-13T21:33:21.612Z,37.40
2023-04-13T21:35:49.650Z,37.35
2023-04-13T21:40:48.614Z,45.75
2023-04-13T21:43:17.001Z,43.34
2023-04-13T21:45:46.931Z,42.94
2023-04-13T21:48:14.995Z,42.61
2023-04-13T21:50:43.481Z,42.15
2023-04-13T21:53:11.580Z,41.97
2023-04-13T21:55:41.360Z,41.74
2023-04-13T21:58:09.588Z,41.50
2023-04-13T22:00:37.891Z,40.83
2023-04-13T22:03:06.775Z,40.70
2023-04-13T22:05:35.847Z,40.51
2023-04-13T22:08:04.286Z,39.94
2023-04-13T22:10:34.063Z,39.75
2023-04-13T22:13:02.168Z,39.90
2023-04-13T22:15:31.974Z,40.05
2023-04-13T22:18:00.821Z,39.97
2023-04-13T22:20:30.165Z,40.56
2023-04-13T22:22:58.073Z,40.47
2023-04-13T22:25:28.048Z,40.32
2023-04-13T22:27:56.519Z,39.72
2023-04-13T22:30:27.169Z,39.87
2023-04-13T22:32:59.028Z,39.75
2023-04-13T22:35:27.392Z,39.82
2023-04-13T22:37:59.728Z,39.76
2023-04-13T22:40:28.180Z,39.69
2023-04-13T22:42:56.105Z,39.47
2023-04-13T22:45:26.319Z,39.41
2023-04-13T22:47:54.290Z,39.51
2023-04-13T22:50:22.306Z,40.31
2023-04-13T22:52:54.259Z,40.61
2023-04-13T22:55:22.466Z,40.36
2023-04-13T22:57:50.977Z,40.75
2023-04-13T23:00:20.925Z,40.73
2023-04-13T23:02:56.033Z,40.78
2023-04-13T23:05:24.533Z,40.03
2023-04-13T23:07:52.464Z,39.80
2023-04-13T23:10:21.787Z,39.84
2023-04-13T23:12:49.959Z,39.60
2023-04-13T23:15:17.998Z,39.54
2023-04-13T23:17:47.621Z,39.49
2023-04-13T23:20:15.791Z,39.28
2023-04-13T23:22:43.798Z,39.43
2023-04-13T23:25:12.059Z,39.55
2023-04-13T23:27:40.500Z,39.37
2023-04-13T23:30:08.904Z,39.05
2023-04-13T23:32:39.791Z,39.12
2023-04-13T23:35:08.830Z,39.15
2023-04-13T23:37:36.859Z,39.30
2023-04-13T23:40:05.524Z,39.57
2023-04-13T23:42:37.201Z,39.71
2023-04-13T23:45:06.579Z,39.34
2023-04-13T23:47:35.547Z,39.30
2023-04-13T23:50:03.894Z,39.30
2023-04-13T23:52:33.161Z,39.37
2023-04-13T23:55:01.151Z,39.11
2023-04-13T23:57:34.025Z,39.44
